sensor_id;sensor_type;location;lat;lon;timestamp;temperature;humidity
24686;DHT22;12804;51.176;4.452;2022-07-17T00:00:37;17.70;99.90
24686;DHT22;12804;51.176;4.452;2022-07-17T00:03:06;17.60;99.90
24686;DHT22;12804;51.176;4.452;2022-07-17T00:05:31;17.50;99.90
24686;DHT22;12804;51.176;4.452;2022-07-17T00:07:57;17.40;99.90
24686;DHT22;12804;51.176;4.452;2022-07-17T00:10:23;17.40;99.90
24686;DHT22;12804;51.176;4.452;2022-07-17T00:12:49;17.30;99.90
24686;DHT22;12804;51.176;4.452;2022-07-17T00:15:14;17.30;99.90
24686;DHT22;12804;51.176;4.452;2022-07-17T00:17:40;17.20;99.90
24686;DHT22;12804;51.176;4.452;2022-07-17T00:20:07;17.20;99.90
24686;DHT22;12804;51.176;4.452;2022-07-17T00:22:33;17.20;99.90
24686;DHT22;12804;51.176;4.452;2022-07-17T00:24:59;17.10;99.90
24686;DHT22;12804;51.176;4.452;2022-07-17T00:27:25;17.10;99.90
24686;DHT22;12804;51.176;4.452;2022-07-17T00:29:51;17.10;99.90
24686;DHT22;12804;51.176;4.452;2022-07-17T00:32:16;17.10;99.90
24686;DHT22;12804;51.176;4.452;2022-07-17T00:34:42;17.20;99.90
24686;DHT22;12804;51.176;4.452;2022-07-17T00:37:08;17.20;99.90
24686;DHT22;12804;51.176;4.452;2022-07-17T00:39:34;17.30;99.90
24686;DHT22;12804;51.176;4.452;2022-07-17T00:42:00;17.20;99.90
24686;DHT22;12804;51.176;4.452;2022-07-17T00:44:27;17.10;99.90
24686;DHT22;12804;51.176;4.452;2022-07-17T00:46:53;17.00;99.90
24686;DHT22;12804;51.176;4.452;2022-07-17T00:49:19;16.90;99.90
24686;DHT22;12804;51.176;4.452;2022-07-17T00:51:44;16.80;99.90
24686;DHT22;12804;51.176;4.452;2022-07-17T00:54:11;16.80;99.90
24686;DHT22;12804;51.176;4.452;2022-07-17T00:56:40;16.90;99.90
24686;DHT22;12804;51.176;4.452;2022-07-17T00:59:07;16.90;99.90
24686;DHT22;12804;51.176;4.452;2022-07-17T01:01:34;16.90;99.90
24686;DHT22;12804;51.176;4.452;2022-07-17T01:04:00;16.80;99.90
24686;DHT22;12804;51.176;4.452;2022-07-17T01:06:26;16.80;99.90
24686;DHT22;12804;51.176;4.452;2022-07-17T01:08:52;16.70;99.90
24686;DHT22;12804;51.176;4.452;2022-07-17T01:11:17;16.70;99.90
24686;DHT22;12804;51.176;4.452;2022-07-17T01:13:43;16.60;99.90
24686;DHT22;12804;51.176;4.452;2022-07-17T01:16:09;16.50;99.90
24686;DHT22;12804;51.176;4.452;2022-07-17T01:18:35;16.60;99.90
24686;DHT22;12804;51.176;4.452;2022-07-17T01:21:05;16.60;99.90
24686;DHT22;12804;51.176;4.452;2022-07-17T01:23:31;16.60;99.90
24686;DHT22;12804;51.176;4.452;2022-07-17T01:25:57;16.50;99.90
24686;DHT22;12804;51.176;4.452;2022-07-17T01:28:23;16.50;99.90
24686;DHT22;12804;51.176;4.452;2022-07-17T01:30:50;16.50;99.90
24686;DHT22;12804;51.176;4.452;2022-07-17T01:33:17;16.50;99.90
24686;DHT22;12804;51.176;4.452;2022-07-17T01:35:43;16.50;99.90
24686;DHT22;12804;51.176;4.452;2022-07-17T01:38:09;16.50;99.90
24686;DHT22;12804;51.176;4.452;2022-07-17T01:40:35;16.50;99.90
24686;DHT22;12804;51.176;4.452;2022-07-17T01:43:00;16.50;99.90
24686;DHT22;12804;51.176;4.452;2022-07-17T01:45:26;16.40;99.90
24686;DHT22;12804;51.176;4.452;2022-07-17T01:47:52;16.40;99.90
24686;DHT22;12804;51.176;4.452;2022-07-17T01:50:18;16.30;99.90
24686;DHT22;12804;51.176;4.452;2022-07-17T01:52:45;16.30;99.90
24686;DHT22;12804;51.176;4.452;2022-07-17T01:55:13;16.30;99.90
24686;DHT22;12804;51.176;4.452;2022-07-17T01:57:40;16.30;99.90
24686;DHT22;12804;51.176;4.452;2022-07-17T02:00:08;16.40;99.90
24686;DHT22;12804;51.176;4.452;2022-07-17T02:02:34;16.50;99.90
24686;DHT22;12804;51.176;4.452;2022-07-17T02:05:00;16.40;99.90
24686;DHT22;12804;51.176;4.452;2022-07-17T02:07:26;16.30;99.90
24686;DHT22;12804;51.176;4.452;2022-07-17T02:09:52;16.20;99.90
24686;DHT22;12804;51.176;4.452;2022-07-17T02:12:21;16.10;99.90
24686;DHT22;12804;51.176;4.452;2022-07-17T02:14:46;16.10;99.90
24686;DHT22;12804;51.176;4.452;2022-07-17T02:17:12;16.00;99.90
24686;DHT22;12804;51.176;4.452;2022-07-17T02:19:38;15.90;99.90
24686;DHT22;12804;51.176;4.452;2022-07-17T02:22:04;15.80;99.90
24686;DHT22;12804;51.176;4.452;2022-07-17T02:24:29;15.90;99.90
24686;DHT22;12804;51.176;4.452;2022-07-17T02:26:55;15.90;99.90
24686;DHT22;12804;51.176;4.452;2022-07-17T02:29:21;15.80;99.90
24686;DHT22;12804;51.176;4.452;2022-07-17T02:31:47;15.80;99.90
24686;DHT22;12804;51.176;4.452;2022-07-17T02:34:13;15.80;99.90
24686;DHT22;12804;51.176;4.452;2022-07-17T02:36:38;15.70;99.90
24686;DHT22;12804;51.176;4.452;2022-07-17T02:39:04;15.70;99.90
24686;DHT22;12804;51.176;4.452;2022-07-17T02:41:30;15.80;99.90
24686;DHT22;12804;51.176;4.452;2022-07-17T02:43:56;15.70;99.90
24686;DHT22;12804;51.176;4.452;2022-07-17T02:46:21;15.70;99.90
24686;DHT22;12804;51.176;4.452;2022-07-17T02:48:47;15.60;99.90
24686;DHT22;12804;51.176;4.452;2022-07-17T02:51:13;15.50;99.90
24686;DHT22;12804;51.176;4.452;2022-07-17T02:53:39;15.40;99.90
24686;DHT22;12804;51.176;4.452;2022-07-17T02:56:05;15.40;99.90
24686;DHT22;12804;51.176;4.452;2022-07-17T02:58:31;15.40;99.90
24686;DHT22;12804;51.176;4.452;2022-07-17T03:00:56;15.40;99.90
24686;DHT22;12804;51.176;4.452;2022-07-17T03:03:22;15.50;99.90
24686;DHT22;12804;51.176;4.452;2022-07-17T03:05:48;15.50;99.90
24686;DHT22;12804;51.176;4.452;2022-07-17T03:08:14;15.50;99.90
24686;DHT22;12804;51.176;4.452;2022-07-17T03:10:40;15.40;99.90
24686;DHT22;12804;51.176;4.452;2022-07-17T03:13:06;15.40;99.90
24686;DHT22;12804;51.176;4.452;2022-07-17T03:15:32;15.30;99.90
24686;DHT22;12804;51.176;4.452;2022-07-17T03:17:58;15.30;99.90
24686;DHT22;12804;51.176;4.452;2022-07-17T03:20:24;15.20;99.90
24686;DHT22;12804;51.176;4.452;2022-07-17T03:22:50;15.10;99.90
24686;DHT22;12804;51.176;4.452;2022-07-17T03:25:16;15.20;99.90
24686;DHT22;12804;51.176;4.452;2022-07-17T03:27:42;15.20;99.90
24686;DHT22;12804;51.176;4.452;2022-07-17T03:30:08;15.20;99.90
24686;DHT22;12804;51.176;4.452;2022-07-17T03:32:33;15.20;99.90
24686;DHT22;12804;51.176;4.452;2022-07-17T03:34:59;15.30;99.90
24686;DHT22;12804;51.176;4.452;2022-07-17T03:37:27;15.20;99.90
24686;DHT22;12804;51.176;4.452;2022-07-17T03:39:54;15.20;99.90
24686;DHT22;12804;51.176;4.452;2022-07-17T03:42:20;15.20;99.90
24686;DHT22;12804;51.176;4.452;2022-07-17T03:44:45;15.20;99.90
24686;DHT22;12804;51.176;4.452;2022-07-17T03:47:12;15.40;99.90
24686;DHT22;12804;51.176;4.452;2022-07-17T03:49:37;15.20;99.90
24686;DHT22;12804;51.176;4.452;2022-07-17T03:52:04;15.30;99.90
24686;DHT22;12804;51.176;4.452;2022-07-17T03:54:29;15.20;99.90
24686;DHT22;12804;51.176;4.452;2022-07-17T03:56:55;15.20;99.90
24686;DHT22;12804;51.176;4.452;2022-07-17T03:59:21;15.10;99.90
24686;DHT22;12804;51.176;4.452;2022-07-17T04:01:47;15.10;99.90
24686;DHT22;12804;51.176;4.452;2022-07-17T04:04:13;15.10;99.90
24686;DHT22;12804;51.176;4.452;2022-07-17T04:06:39;15.00;99.90
24686;DHT22;12804;51.176;4.452;2022-07-17T04:09:05;15.00;99.90
24686;DHT22;12804;51.176;4.452;2022-07-17T04:11:31;15.00;99.90
24686;DHT22;12804;51.176;4.452;2022-07-17T04:13:56;15.00;99.90
24686;DHT22;12804;51.176;4.452;2022-07-17T04:16:22;15.00;99.90
24686;DHT22;12804;51.176;4.452;2022-07-17T04:18:48;14.90;99.90
24686;DHT22;12804;51.176;4.452;2022-07-17T04:21:14;15.00;99.90
24686;DHT22;12804;51.176;4.452;2022-07-17T04:23:40;15.00;99.90
24686;DHT22;12804;51.176;4.452;2022-07-17T04:26:06;15.00;99.90
24686;DHT22;12804;51.176;4.452;2022-07-17T04:28:32;15.00;99.90
24686;DHT22;12804;51.176;4.452;2022-07-17T04:30:58;15.00;99.90
24686;DHT22;12804;51.176;4.452;2022-07-17T04:33:24;14.90;99.90
24686;DHT22;12804;51.176;4.452;2022-07-17T04:35:50;15.00;99.90
24686;DHT22;12804;51.176;4.452;2022-07-17T04:38:16;15.00;99.90
24686;DHT22;12804;51.176;4.452;2022-07-17T04:40:42;15.10;99.90
24686;DHT22;12804;51.176;4.452;2022-07-17T04:43:07;15.30;99.90
24686;DHT22;12804;51.176;4.452;2022-07-17T04:45:34;15.50;99.90
24686;DHT22;12804;51.176;4.452;2022-07-17T04:48:00;15.40;99.90
24686;DHT22;12804;51.176;4.452;2022-07-17T04:50:26;15.50;99.90
24686;DHT22;12804;51.176;4.452;2022-07-17T04:52:52;15.40;99.90
24686;DHT22;12804;51.176;4.452;2022-07-17T04:55:17;15.50;99.90
24686;DHT22;12804;51.176;4.452;2022-07-17T04:57:43;15.60;99.90
24686;DHT22;12804;51.176;4.452;2022-07-17T05:00:10;15.70;99.90
24686;DHT22;12804;51.176;4.452;2022-07-17T05:02:37;15.70;99.90
24686;DHT22;12804;51.176;4.452;2022-07-17T05:05:03;15.60;99.90
24686;DHT22;12804;51.176;4.452;2022-07-17T05:07:29;15.60;99.90
24686;DHT22;12804;51.176;4.452;2022-07-17T05:09:55;15.60;99.90
24686;DHT22;12804;51.176;4.452;2022-07-17T05:12:20;15.60;99.90
24686;DHT22;12804;51.176;4.452;2022-07-17T05:14:46;15.70;99.90
24686;DHT22;12804;51.176;4.452;2022-07-17T05:17:12;15.90;99.90
24686;DHT22;12804;51.176;4.452;2022-07-17T05:19:38;16.00;99.90
24686;DHT22;12804;51.176;4.452;2022-07-17T05:22:04;16.10;99.90
24686;DHT22;12804;51.176;4.452;2022-07-17T05:24:30;16.10;99.90
24686;DHT22;12804;51.176;4.452;2022-07-17T05:26:57;16.20;99.90
24686;DHT22;12804;51.176;4.452;2022-07-17T05:29:23;16.20;99.90
24686;DHT22;12804;51.176;4.452;2022-07-17T05:31:49;16.20;99.90
24686;DHT22;12804;51.176;4.452;2022-07-17T05:34:15;16.20;99.90
24686;DHT22;12804;51.176;4.452;2022-07-17T05:36:40;16.20;99.90
24686;DHT22;12804;51.176;4.452;2022-07-17T05:39:06;16.40;99.90
24686;DHT22;12804;51.176;4.452;2022-07-17T05:41:34;16.50;99.90
24686;DHT22;12804;51.176;4.452;2022-07-17T05:44:00;16.50;99.90
24686;DHT22;12804;51.176;4.452;2022-07-17T05:46:25;16.50;99.90
24686;DHT22;12804;51.176;4.452;2022-07-17T05:48:51;16.50;99.90
24686;DHT22;12804;51.176;4.452;2022-07-17T05:51:17;16.60;99.90
24686;DHT22;12804;51.176;4.452;2022-07-17T05:53:43;16.50;99.90
24686;DHT22;12804;51.176;4.452;2022-07-17T05:56:08;16.40;99.90
24686;DHT22;12804;51.176;4.452;2022-07-17T05:58:34;16.50;99.90
24686;DHT22;12804;51.176;4.452;2022-07-17T06:01:01;16.70;99.90
24686;DHT22;12804;51.176;4.452;2022-07-17T06:03:26;16.80;99.90
24686;DHT22;12804;51.176;4.452;2022-07-17T06:05:52;16.90;99.90
24686;DHT22;12804;51.176;4.452;2022-07-17T06:08:18;17.00;99.90
24686;DHT22;12804;51.176;4.452;2022-07-17T06:10:43;17.10;99.90
24686;DHT22;12804;51.176;4.452;2022-07-17T06:13:09;17.20;99.90
24686;DHT22;12804;51.176;4.452;2022-07-17T06:15:35;17.30;99.90
24686;DHT22;12804;51.176;4.452;2022-07-17T06:18:04;17.40;99.90
24686;DHT22;12804;51.176;4.452;2022-07-17T06:20:30;17.50;99.90
24686;DHT22;12804;51.176;4.452;2022-07-17T06:22:56;17.50;99.90
24686;DHT22;12804;51.176;4.452;2022-07-17T06:25:22;17.60;99.90
24686;DHT22;12804;51.176;4.452;2022-07-17T06:27:48;17.70;99.90
24686;DHT22;12804;51.176;4.452;2022-07-17T06:30:15;17.80;99.90
24686;DHT22;12804;51.176;4.452;2022-07-17T06:32:41;17.80;99.90
24686;DHT22;12804;51.176;4.452;2022-07-17T06:35:08;17.90;99.90
24686;DHT22;12804;51.176;4.452;2022-07-17T06:37:35;17.80;99.90
24686;DHT22;12804;51.176;4.452;2022-07-17T06:40:01;18.00;99.90
24686;DHT22;12804;51.176;4.452;2022-07-17T06:42:27;18.20;99.90
24686;DHT22;12804;51.176;4.452;2022-07-17T06:44:53;18.30;99.90
24686;DHT22;12804;51.176;4.452;2022-07-17T06:47:19;18.40;99.90
24686;DHT22;12804;51.176;4.452;2022-07-17T06:49:44;18.50;99.90
24686;DHT22;12804;51.176;4.452;2022-07-17T06:52:10;18.60;99.90
24686;DHT22;12804;51.176;4.452;2022-07-17T06:54:36;18.70;99.90
24686;DHT22;12804;51.176;4.452;2022-07-17T06:57:02;18.70;99.90
24686;DHT22;12804;51.176;4.452;2022-07-17T06:59:28;18.80;99.90
24686;DHT22;12804;51.176;4.452;2022-07-17T07:01:54;18.90;99.90
24686;DHT22;12804;51.176;4.452;2022-07-17T07:04:20;19.00;99.90
24686;DHT22;12804;51.176;4.452;2022-07-17T07:06:45;19.00;99.90
24686;DHT22;12804;51.176;4.452;2022-07-17T07:09:11;19.10;99.90
24686;DHT22;12804;51.176;4.452;2022-07-17T07:11:38;19.20;99.90
24686;DHT22;12804;51.176;4.452;2022-07-17T07:14:05;19.30;99.90
24686;DHT22;12804;51.176;4.452;2022-07-17T07:16:31;19.40;99.90
24686;DHT22;12804;51.176;4.452;2022-07-17T07:18:56;19.50;99.90
24686;DHT22;12804;51.176;4.452;2022-07-17T07:21:22;19.50;99.90
24686;DHT22;12804;51.176;4.452;2022-07-17T07:23:50;19.60;99.90
24686;DHT22;12804;51.176;4.452;2022-07-17T07:26:16;19.70;99.90
24686;DHT22;12804;51.176;4.452;2022-07-17T07:28:42;19.90;99.90
24686;DHT22;12804;51.176;4.452;2022-07-17T07:31:08;20.00;99.90
24686;DHT22;12804;51.176;4.452;2022-07-17T07:33:34;20.00;99.90
24686;DHT22;12804;51.176;4.452;2022-07-17T07:35:59;20.10;99.90
24686;DHT22;12804;51.176;4.452;2022-07-17T07:38:25;20.10;99.90
24686;DHT22;12804;51.176;4.452;2022-07-17T07:40:51;20.20;99.90
24686;DHT22;12804;51.176;4.452;2022-07-17T07:43:17;19.90;99.90
24686;DHT22;12804;51.176;4.452;2022-07-17T07:45:43;20.00;99.90
24686;DHT22;12804;51.176;4.452;2022-07-17T07:48:08;19.90;99.90
24686;DHT22;12804;51.176;4.452;2022-07-17T07:50:36;20.00;99.90
24686;DHT22;12804;51.176;4.452;2022-07-17T07:53:02;20.20;99.90
24686;DHT22;12804;51.176;4.452;2022-07-17T07:55:27;20.20;99.90
24686;DHT22;12804;51.176;4.452;2022-07-17T07:58:06;20.30;99.90
24686;DHT22;12804;51.176;4.452;2022-07-17T08:00:32;20.00;99.90
24686;DHT22;12804;51.176;4.452;2022-07-17T08:02:58;20.00;99.90
24686;DHT22;12804;51.176;4.452;2022-07-17T08:05:24;20.20;99.90
24686;DHT22;12804;51.176;4.452;2022-07-17T08:07:49;20.30;99.90
24686;DHT22;12804;51.176;4.452;2022-07-17T08:10:15;20.10;99.90
24686;DHT22;12804;51.176;4.452;2022-07-17T08:12:41;20.20;99.90
24686;DHT22;12804;51.176;4.452;2022-07-17T08:15:07;20.40;99.90
24686;DHT22;12804;51.176;4.452;2022-07-17T08:17:33;20.40;99.90
24686;DHT22;12804;51.176;4.452;2022-07-17T08:19:59;20.60;99.90
24686;DHT22;12804;51.176;4.452;2022-07-17T08:22:24;20.50;99.90
24686;DHT22;12804;51.176;4.452;2022-07-17T08:24:50;20.70;99.90
24686;DHT22;12804;51.176;4.452;2022-07-17T08:27:16;20.90;99.90
24686;DHT22;12804;51.176;4.452;2022-07-17T08:29:42;21.10;99.90
24686;DHT22;12804;51.176;4.452;2022-07-17T08:32:08;21.20;99.90
24686;DHT22;12804;51.176;4.452;2022-07-17T08:34:33;21.20;99.90
24686;DHT22;12804;51.176;4.452;2022-07-17T08:36:59;21.20;99.90
24686;DHT22;12804;51.176;4.452;2022-07-17T08:39:25;21.40;99.90
24686;DHT22;12804;51.176;4.452;2022-07-17T08:41:51;21.60;99.90
24686;DHT22;12804;51.176;4.452;2022-07-17T08:44:17;21.60;99.90
24686;DHT22;12804;51.176;4.452;2022-07-17T08:46:43;21.70;99.90
24686;DHT22;12804;51.176;4.452;2022-07-17T08:49:10;21.70;99.90
24686;DHT22;12804;51.176;4.452;2022-07-17T08:51:37;21.80;99.90
24686;DHT22;12804;51.176;4.452;2022-07-17T08:54:02;21.80;99.90
24686;DHT22;12804;51.176;4.452;2022-07-17T08:56:29;21.90;99.90
24686;DHT22;12804;51.176;4.452;2022-07-17T08:58:54;22.10;99.90
24686;DHT22;12804;51.176;4.452;2022-07-17T09:01:21;22.20;99.90
24686;DHT22;12804;51.176;4.452;2022-07-17T09:04:02;22.20;99.90
24686;DHT22;12804;51.176;4.452;2022-07-17T09:06:32;22.00;99.90
24686;DHT22;12804;51.176;4.452;2022-07-17T09:09:05;21.90;99.90
24686;DHT22;12804;51.176;4.452;2022-07-17T09:12:01;21.80;99.90
24686;DHT22;12804;51.176;4.452;2022-07-17T09:14:41;21.90;99.90
24686;DHT22;12804;51.176;4.452;2022-07-17T09:17:11;22.10;99.90
24686;DHT22;12804;51.176;4.452;2022-07-17T09:19:40;22.30;99.90
24686;DHT22;12804;51.176;4.452;2022-07-17T09:22:15;22.40;99.90
24686;DHT22;12804;51.176;4.452;2022-07-17T09:24:53;22.50;99.90
24686;DHT22;12804;51.176;4.452;2022-07-17T09:32:29;22.80;99.90
24686;DHT22;12804;51.176;4.452;2022-07-17T09:34:58;22.70;99.90
24686;DHT22;12804;51.176;4.452;2022-07-17T09:37:26;22.30;99.90
24686;DHT22;12804;51.176;4.452;2022-07-17T09:39:53;22.20;99.90
24686;DHT22;12804;51.176;4.452;2022-07-17T09:42:23;22.40;99.90
24686;DHT22;12804;51.176;4.452;2022-07-17T09:45:07;22.70;99.90
24686;DHT22;12804;51.176;4.452;2022-07-17T09:47:35;22.30;99.90
24686;DHT22;12804;51.176;4.452;2022-07-17T09:50:03;22.30;99.90
24686;DHT22;12804;51.176;4.452;2022-07-17T09:52:33;22.10;99.90
24686;DHT22;12804;51.176;4.452;2022-07-17T09:55:00;22.30;99.90
24686;DHT22;12804;51.176;4.452;2022-07-17T09:57:30;22.60;99.90
24686;DHT22;12804;51.176;4.452;2022-07-17T09:59:59;23.00;99.90
24686;DHT22;12804;51.176;4.452;2022-07-17T10:02:26;23.00;99.90
24686;DHT22;12804;51.176;4.452;2022-07-17T10:04:52;22.80;99.90
24686;DHT22;12804;51.176;4.452;2022-07-17T10:07:19;22.80;99.90
24686;DHT22;12804;51.176;4.452;2022-07-17T10:09:46;23.30;99.90
24686;DHT22;12804;51.176;4.452;2022-07-17T10:12:13;23.70;99.90
24686;DHT22;12804;51.176;4.452;2022-07-17T10:14:40;23.80;99.90
24686;DHT22;12804;51.176;4.452;2022-07-17T10:17:11;23.90;99.90
24686;DHT22;12804;51.176;4.452;2022-07-17T10:19:48;23.90;99.90
24686;DHT22;12804;51.176;4.452;2022-07-17T10:22:15;24.10;99.90
24686;DHT22;12804;51.176;4.452;2022-07-17T10:24:54;24.50;99.90
24686;DHT22;12804;51.176;4.452;2022-07-17T10:27:26;24.70;99.90
24686;DHT22;12804;51.176;4.452;2022-07-17T10:32:30;23.80;99.90
24686;DHT22;12804;51.176;4.452;2022-07-17T10:37:40;24.00;99.90
24686;DHT22;12804;51.176;4.452;2022-07-17T10:40:16;24.40;99.90
24686;DHT22;12804;51.176;4.452;2022-07-17T10:45:18;24.90;99.90
24686;DHT22;12804;51.176;4.452;2022-07-17T10:47:59;25.20;99.90
24686;DHT22;12804;51.176;4.452;2022-07-17T10:50:26;25.00;99.90
24686;DHT22;12804;51.176;4.452;2022-07-17T10:53:08;25.20;99.90
24686;DHT22;12804;51.176;4.452;2022-07-17T10:55:36;25.40;99.90
24686;DHT22;12804;51.176;4.452;2022-07-17T10:58:03;25.50;99.90
24686;DHT22;12804;51.176;4.452;2022-07-17T11:00:29;25.30;99.90
24686;DHT22;12804;51.176;4.452;2022-07-17T11:02:55;25.60;99.90
24686;DHT22;12804;51.176;4.452;2022-07-17T11:05:21;25.40;99.90
24686;DHT22;12804;51.176;4.452;2022-07-17T11:07:56;25.30;99.90
24686;DHT22;12804;51.176;4.452;2022-07-17T11:10:25;25.70;99.90
24686;DHT22;12804;51.176;4.452;2022-07-17T11:12:53;27.40;99.90
24686;DHT22;12804;51.176;4.452;2022-07-17T11:15:19;29.20;99.90
24686;DHT22;12804;51.176;4.452;2022-07-17T11:17:46;30.60;99.60
24686;DHT22;12804;51.176;4.452;2022-07-17T11:20:13;30.80;95.90
24686;DHT22;12804;51.176;4.452;2022-07-17T11:22:39;31.40;92.50
24686;DHT22;12804;51.176;4.452;2022-07-17T11:25:05;31.50;91.00
24686;DHT22;12804;51.176;4.452;2022-07-17T11:27:32;31.70;90.30
24686;DHT22;12804;51.176;4.452;2022-07-17T11:29:59;32.30;85.90
24686;DHT22;12804;51.176;4.452;2022-07-17T11:32:32;30.00;88.80
24686;DHT22;12804;51.176;4.452;2022-07-17T11:34:58;28.60;92.00
24686;DHT22;12804;51.176;4.452;2022-07-17T11:37:28;29.30;90.60
24686;DHT22;12804;51.176;4.452;2022-07-17T11:39:55;31.10;87.50
24686;DHT22;12804;51.176;4.452;2022-07-17T11:42:22;32.50;82.00
24686;DHT22;12804;51.176;4.452;2022-07-17T11:44:54;33.40;77.50
24686;DHT22;12804;51.176;4.452;2022-07-17T11:47:25;34.50;73.80
24686;DHT22;12804;51.176;4.452;2022-07-17T11:50:03;34.40;67.00
24686;DHT22;12804;51.176;4.452;2022-07-17T11:52:43;34.10;65.20
24686;DHT22;12804;51.176;4.452;2022-07-17T11:55:09;35.20;63.00
24686;DHT22;12804;51.176;4.452;2022-07-17T11:57:43;34.20;63.30
24686;DHT22;12804;51.176;4.452;2022-07-17T12:00:11;32.90;65.10
24686;DHT22;12804;51.176;4.452;2022-07-17T12:02:37;33.60;64.80
24686;DHT22;12804;51.176;4.452;2022-07-17T12:05:02;34.10;62.90
24686;DHT22;12804;51.176;4.452;2022-07-17T12:07:47;34.90;59.20
24686;DHT22;12804;51.176;4.452;2022-07-17T12:10:21;36.00;58.30
24686;DHT22;12804;51.176;4.452;2022-07-17T12:12:52;36.00;57.40
24686;DHT22;12804;51.176;4.452;2022-07-17T12:15:19;36.50;56.00
24686;DHT22;12804;51.176;4.452;2022-07-17T12:17:45;37.40;55.20
24686;DHT22;12804;51.176;4.452;2022-07-17T12:20:11;37.70;52.30
24686;DHT22;12804;51.176;4.452;2022-07-17T12:22:48;38.30;50.50
24686;DHT22;12804;51.176;4.452;2022-07-17T12:25:28;38.80;49.20
24686;DHT22;12804;51.176;4.452;2022-07-17T12:27:54;39.20;49.00
24686;DHT22;12804;51.176;4.452;2022-07-17T12:30:20;38.90;46.50
24686;DHT22;12804;51.176;4.452;2022-07-17T12:32:46;39.20;46.80
24686;DHT22;12804;51.176;4.452;2022-07-17T12:35:15;37.40;46.90
24686;DHT22;12804;51.176;4.452;2022-07-17T12:37:41;36.80;48.00
24686;DHT22;12804;51.176;4.452;2022-07-17T12:40:08;37.30;47.00
24686;DHT22;12804;51.176;4.452;2022-07-17T12:42:34;38.60;45.00
24686;DHT22;12804;51.176;4.452;2022-07-17T12:45:00;39.40;44.30
24686;DHT22;12804;51.176;4.452;2022-07-17T12:47:27;39.50;43.80
24686;DHT22;12804;51.176;4.452;2022-07-17T12:49:53;39.40;41.10
24686;DHT22;12804;51.176;4.452;2022-07-17T12:52:19;39.10;42.30
24686;DHT22;12804;51.176;4.452;2022-07-17T12:54:45;38.70;42.60
24686;DHT22;12804;51.176;4.452;2022-07-17T12:57:11;38.40;41.80
24686;DHT22;12804;51.176;4.452;2022-07-17T12:59:37;38.40;40.80
24686;DHT22;12804;51.176;4.452;2022-07-17T13:02:03;39.10;41.00
24686;DHT22;12804;51.176;4.452;2022-07-17T13:04:29;39.00;42.20
24686;DHT22;12804;51.176;4.452;2022-07-17T13:06:54;39.80;41.50
24686;DHT22;12804;51.176;4.452;2022-07-17T13:09:20;40.40;41.00
24686;DHT22;12804;51.176;4.452;2022-07-17T13:11:46;41.80;37.60
24686;DHT22;12804;51.176;4.452;2022-07-17T13:14:12;40.30;36.90
24686;DHT22;12804;51.176;4.452;2022-07-17T13:16:39;40.70;38.50
24686;DHT22;12804;51.176;4.452;2022-07-17T13:19:04;41.70;37.90
24686;DHT22;12804;51.176;4.452;2022-07-17T13:21:31;41.90;37.80
24686;DHT22;12804;51.176;4.452;2022-07-17T13:23:57;42.50;37.90
24686;DHT22;12804;51.176;4.452;2022-07-17T13:26:23;42.10;37.20
24686;DHT22;12804;51.176;4.452;2022-07-17T13:28:49;42.20;36.90
24686;DHT22;12804;51.176;4.452;2022-07-17T13:31:15;40.40;38.30
24686;DHT22;12804;51.176;4.452;2022-07-17T13:33:40;39.10;39.50
24686;DHT22;12804;51.176;4.452;2022-07-17T13:36:06;39.60;39.40
24686;DHT22;12804;51.176;4.452;2022-07-17T13:38:32;40.90;38.70
24686;DHT22;12804;51.176;4.452;2022-07-17T13:40:58;41.20;36.40
24686;DHT22;12804;51.176;4.452;2022-07-17T13:43:24;42.20;35.50
24686;DHT22;12804;51.176;4.452;2022-07-17T13:45:50;43.30;32.50
24686;DHT22;12804;51.176;4.452;2022-07-17T13:48:15;43.40;32.00
24686;DHT22;12804;51.176;4.452;2022-07-17T13:50:42;43.20;33.00
24686;DHT22;12804;51.176;4.452;2022-07-17T13:53:08;42.00;33.80
24686;DHT22;12804;51.176;4.452;2022-07-17T13:55:34;42.20;33.20
24686;DHT22;12804;51.176;4.452;2022-07-17T13:58:00;43.10;33.30
24686;DHT22;12804;51.176;4.452;2022-07-17T14:00:26;43.40;32.70
24686;DHT22;12804;51.176;4.452;2022-07-17T14:02:55;42.40;33.40
24686;DHT22;12804;51.176;4.452;2022-07-17T14:05:21;42.80;33.40
24686;DHT22;12804;51.176;4.452;2022-07-17T14:07:47;43.80;32.20
24686;DHT22;12804;51.176;4.452;2022-07-17T14:10:13;44.10;31.70
24686;DHT22;12804;51.176;4.452;2022-07-17T14:12:39;44.20;31.70
24686;DHT22;12804;51.176;4.452;2022-07-17T14:15:05;43.70;31.70
24686;DHT22;12804;51.176;4.452;2022-07-17T14:17:33;43.70;33.00
24686;DHT22;12804;51.176;4.452;2022-07-17T14:19:59;44.50;31.60
24686;DHT22;12804;51.176;4.452;2022-07-17T14:22:25;45.10;31.10
24686;DHT22;12804;51.176;4.452;2022-07-17T14:24:50;45.10;30.00
24686;DHT22;12804;51.176;4.452;2022-07-17T14:27:16;45.20;29.90
24686;DHT22;12804;51.176;4.452;2022-07-17T14:29:42;44.90;30.40
24686;DHT22;12804;51.176;4.452;2022-07-17T14:32:07;44.80;31.00
24686;DHT22;12804;51.176;4.452;2022-07-17T14:34:33;45.30;29.90
24686;DHT22;12804;51.176;4.452;2022-07-17T14:36:59;45.60;29.60
24686;DHT22;12804;51.176;4.452;2022-07-17T14:39:28;45.80;29.50
24686;DHT22;12804;51.176;4.452;2022-07-17T14:41:54;45.00;29.10
24686;DHT22;12804;51.176;4.452;2022-07-17T14:44:20;45.10;29.40
24686;DHT22;12804;51.176;4.452;2022-07-17T14:46:45;45.10;29.40
24686;DHT22;12804;51.176;4.452;2022-07-17T14:49:11;45.70;29.30
24686;DHT22;12804;51.176;4.452;2022-07-17T14:51:37;45.50;29.20
24686;DHT22;12804;51.176;4.452;2022-07-17T14:54:03;45.40;28.80
24686;DHT22;12804;51.176;4.452;2022-07-17T14:56:29;45.40;28.60
24686;DHT22;12804;51.176;4.452;2022-07-17T14:58:54;43.40;30.20
24686;DHT22;12804;51.176;4.452;2022-07-17T15:01:20;41.60;31.20
24686;DHT22;12804;51.176;4.452;2022-07-17T15:03:46;41.90;30.20
24686;DHT22;12804;51.176;4.452;2022-07-17T15:06:12;42.00;30.80
24686;DHT22;12804;51.176;4.452;2022-07-17T15:08:38;42.20;31.40
24686;DHT22;12804;51.176;4.452;2022-07-17T15:11:04;42.60;31.40
24686;DHT22;12804;51.176;4.452;2022-07-17T15:13:30;43.80;30.40
24686;DHT22;12804;51.176;4.452;2022-07-17T15:15:56;43.10;30.00
24686;DHT22;12804;51.176;4.452;2022-07-17T15:18:21;42.90;29.70
24686;DHT22;12804;51.176;4.452;2022-07-17T15:20:47;42.90;29.70
24686;DHT22;12804;51.176;4.452;2022-07-17T15:23:13;41.90;31.20
24686;DHT22;12804;51.176;4.452;2022-07-17T15:25:39;42.20;31.30
24686;DHT22;12804;51.176;4.452;2022-07-17T15:28:05;42.40;30.80
24686;DHT22;12804;51.176;4.452;2022-07-17T15:30:31;39.60;32.90
24686;DHT22;12804;51.176;4.452;2022-07-17T15:32:57;41.00;33.00
24686;DHT22;12804;51.176;4.452;2022-07-17T15:35:23;42.30;31.60
24686;DHT22;12804;51.176;4.452;2022-07-17T15:37:53;44.00;30.30
24686;DHT22;12804;51.176;4.452;2022-07-17T15:40:20;45.10;29.70